sensor_id;sensor_type;location;lat;lon;timestamp;pressure;altitude;pressure_sealevel;temperature;humidity
40372;BME280;28564;53.346;-6.554;2023-02-28T00:02:22;102929.95;;;10.16;43.37
40372;BME280;28564;53.346;-6.554;2023-02-28T00:04:49;102931.12;;;10.13;43.38
40372;BME280;28564;53.346;-6.554;2023-02-28T00:07:16;102930.29;;;10.10;43.45
40372;BME280;28564;53.346;-6.554;2023-02-28T00:09:43;102934.24;;;10.09;43.49
40372;BME280;28564;53.346;-6.554;2023-02-28T00:12:11;102934.17;;;10.09;43.53
40372;BME280;28564;53.346;-6.554;2023-02-28T00:14:39;102934.02;;;10.11;43.50
40372;BME280;28564;53.346;-6.554;2023-02-28T00:17:06;102935.43;;;10.10;43.50
40372;BME280;28564;53.346;-6.554;2023-02-28T00:19:33;102938.82;;;10.09;43.52
40372;BME280;28564;53.346;-6.554;2023-02-28T00:22:00;102939.96;;;10.08;43.54
40372;BME280;28564;53.346;-6.554;2023-02-28T00:24:28;102939.84;;;9.79;43.54
40372;BME280;28564;53.346;-6.554;2023-02-28T00:26:55;102942.49;;;10.05;43.61
40372;BME280;28564;53.346;-6.554;2023-02-28T00:29:22;102947.35;;;10.05;43.62
40372;BME280;28564;53.346;-6.554;2023-02-28T00:31:49;102948.88;;;10.04;43.61
40372;BME280;28564;53.346;-6.554;2023-02-28T00:34:17;102946.34;;;9.76;43.63
40372;BME280;28564;53.346;-6.554;2023-02-28T00:36:44;102947.66;;;10.01;43.64
40372;BME280;28564;53.346;-6.554;2023-02-28T00:39:11;102946.45;;;9.98;43.63
40372;BME280;28564;53.346;-6.554;2023-02-28T00:41:39;102952.18;;;9.91;43.70
40372;BME280;28564;53.346;-6.554;2023-02-28T00:44:06;102954.94;;;9.87;43.77
40372;BME280;28564;53.346;-6.554;2023-02-28T00:46:33;102951.26;;;9.84;43.81
40372;BME280;28564;53.346;-6.554;2023-02-28T00:49:00;102947.34;;;9.55;43.85
40372;BME280;28564;53.346;-6.554;2023-02-28T00:51:28;102949.76;;;9.54;43.91
40372;BME280;28564;53.346;-6.554;2023-02-28T00:53:55;102948.86;;;9.81;43.92
40372;BME280;28564;53.346;-6.554;2023-02-28T00:56:22;102943.49;;;9.81;43.93
40372;BME280;28564;53.346;-6.554;2023-02-28T00:58:49;102944.21;;;9.78;43.97
40372;BME280;28564;53.346;-6.554;2023-02-28T01:01:17;102944.96;;;9.99;44.01
40372;BME280;28564;53.346;-6.554;2023-02-28T01:03:44;102941.71;;;9.75;44.01
40372;BME280;28564;53.346;-6.554;2023-02-28T01:06:11;102941.49;;;10.24;44.04
40372;BME280;28564;53.346;-6.554;2023-02-28T01:08:38;102943.07;;;9.74;44.07
40372;BME280;28564;53.346;-6.554;2023-02-28T01:11:08;102943.64;;;9.76;44.07
40372;BME280;28564;53.346;-6.554;2023-02-28T01:13:36;102946.75;;;9.83;44.03
40372;BME280;28564;53.346;-6.554;2023-02-28T01:16:04;102948.74;;;9.87;44.03
40372;BME280;28564;53.346;-6.554;2023-02-28T01:18:32;102943.58;;;9.90;44.01
40372;BME280;28564;53.346;-6.554;2023-02-28T01:21:03;102945.64;;;9.91;44.00
40372;BME280;28564;53.346;-6.554;2023-02-28T01:23:35;102945.98;;;9.90;44.03
40372;BME280;28564;53.346;-6.554;2023-02-28T01:26:05;102944.74;;;9.91;44.04
40372;BME280;28564;53.346;-6.554;2023-02-28T01:28:32;102942.00;;;9.93;44.07
40372;BME280;28564;53.346;-6.554;2023-02-28T01:30:59;102945.93;;;9.93;44.08
40372;BME280;28564;53.346;-6.554;2023-02-28T01:33:26;102947.18;;;9.92;44.11
40372;BME280;28564;53.346;-6.554;2023-02-28T01:35:58;102950.16;;;10.40;44.14
40372;BME280;28564;53.346;-6.554;2023-02-28T01:38:26;102947.40;;;9.89;44.22
40372;BME280;28564;53.346;-6.554;2023-02-28T01:40:54;102947.15;;;9.91;44.28
40372;BME280;28564;53.346;-6.554;2023-02-28T01:43:23;102949.48;;;9.92;44.31
40372;BME280;28564;53.346;-6.554;2023-02-28T01:45:52;102951.70;;;9.92;44.35
40372;BME280;28564;53.346;-6.554;2023-02-28T01:48:22;102947.32;;;9.93;44.40
40372;BME280;28564;53.346;-6.554;2023-02-28T01:50:51;102949.56;;;9.96;44.43
40372;BME280;28564;53.346;-6.554;2023-02-28T01:53:24;102947.75;;;9.97;44.45
40372;BME280;28564;53.346;-6.554;2023-02-28T01:55:54;102950.82;;;9.97;44.51
40372;BME280;28564;53.346;-6.554;2023-02-28T01:58:22;102951.94;;;10.00;44.56
40372;BME280;28564;53.346;-6.554;2023-02-28T02:00:50;102954.04;;;10.26;44.56
40372;BME280;28564;53.346;-6.554;2023-02-28T02:03:20;102952.64;;;10.26;44.58
40372;BME280;28564;53.346;-6.554;2023-02-28T02:05:47;102948.19;;;10.02;44.62
40372;BME280;28564;53.346;-6.554;2023-02-28T02:08:19;102951.91;;;10.01;44.72
40372;BME280;28564;53.346;-6.554;2023-02-28T02:10:48;102951.63;;;10.01;44.79
40372;BME280;28564;53.346;-6.554;2023-02-28T02:13:29;102951.33;;;10.02;44.84
40372;BME280;28564;53.346;-6.554;2023-02-28T02:16:08;102950.27;;;10.04;44.84
40372;BME280;28564;53.346;-6.554;2023-02-28T02:18:42;102948.87;;;10.05;44.83
40372;BME280;28564;53.346;-6.554;2023-02-28T02:21:58;102946.05;;;10.03;44.89
40372;BME280;28564;53.346;-6.554;2023-02-28T02:24:48;102944.37;;;10.03;44.99
40372;BME280;28564;53.346;-6.554;2023-02-28T02:27:26;102940.71;;;10.04;44.99
40372;BME280;28564;53.346;-6.554;2023-02-28T02:30:20;102937.01;;;10.02;45.05
40372;BME280;28564;53.346;-6.554;2023-02-28T02:33:44;102940.46;;;10.03;45.12
40372;BME280;28564;53.346;-6.554;2023-02-28T02:36:21;102939.13;;;10.02;45.15
40372;BME280;28564;53.346;-6.554;2023-02-28T02:38:50;102938.12;;;9.70;45.25
40372;BME280;28564;53.346;-6.554;2023-02-28T02:41:24;102936.08;;;9.90;45.43
40372;BME280;28564;53.346;-6.554;2023-02-28T02:44:01;102936.12;;;9.89;45.52
40372;BME280;28564;53.346;-6.554;2023-02-28T02:46:31;102939.74;;;9.86;45.63
40372;BME280;28564;53.346;-6.554;2023-02-28T02:49:03;102942.85;;;9.82;45.82
40372;BME280;28564;53.346;-6.554;2023-02-28T02:51:33;102942.25;;;9.78;46.04
40372;BME280;28564;53.346;-6.554;2023-02-28T02:54:05;102940.03;;;9.75;46.22
40372;BME280;28564;53.346;-6.554;2023-02-28T02:56:36;102939.47;;;9.75;46.32
40372;BME280;28564;53.346;-6.554;2023-02-28T02:59:09;102942.65;;;9.78;46.36
40372;BME280;28564;53.346;-6.554;2023-02-28T03:01:39;102943.89;;;9.80;46.34
40372;BME280;28564;53.346;-6.554;2023-02-28T03:04:10;102944.69;;;9.80;46.34
40372;BME280;28564;53.346;-6.554;2023-02-28T03:06:38;102945.76;;;9.80;46.42
40372;BME280;28564;53.346;-6.554;2023-02-28T03:09:06;102946.13;;;9.80;46.45
40372;BME280;28564;53.346;-6.554;2023-02-28T03:11:35;102946.09;;;9.80;46.49
40372;BME280;28564;53.346;-6.554;2023-02-28T03:14:15;102943.28;;;9.80;46.53
40372;BME280;28564;53.346;-6.554;2023-02-28T03:16:59;102946.06;;;9.81;46.55
40372;BME280;28564;53.346;-6.554;2023-02-28T03:19:41;102949.04;;;9.83;46.55
40372;BME280;28564;53.346;-6.554;2023-02-28T03:22:24;102951.92;;;9.84;46.57
40372;BME280;28564;53.346;-6.554;2023-02-28T03:25:01;102953.88;;;9.87;46.55
40372;BME280;28564;53.346;-6.554;2023-02-28T03:27:39;102952.61;;;9.84;46.62
40372;BME280;28564;53.346;-6.554;2023-02-28T03:30:12;102951.80;;;10.04;46.68
40372;BME280;28564;53.346;-6.554;2023-02-28T03:32:48;102952.05;;;9.81;46.73
40372;BME280;28564;53.346;-6.554;2023-02-28T03:35:21;102953.94;;;9.79;46.81
40372;BME280;28564;53.346;-6.554;2023-02-28T03:37:53;102956.95;;;9.79;46.85
40372;BME280;28564;53.346;-6.554;2023-02-28T03:40:25;102957.36;;;9.79;46.87
40372;BME280;28564;53.346;-6.554;2023-02-28T03:42:57;102956.55;;;9.77;46.94
40372;BME280;28564;53.346;-6.554;2023-02-28T03:45:28;102958.55;;;9.75;46.99
40372;BME280;28564;53.346;-6.554;2023-02-28T03:48:02;102953.72;;;9.73;47.06
40372;BME280;28564;53.346;-6.554;2023-02-28T03:50:37;102953.56;;;9.73;47.09
40372;BME280;28564;53.346;-6.554;2023-02-28T03:53:11;102955.46;;;9.73;47.16
40372;BME280;28564;53.346;-6.554;2023-02-28T03:55:42;102958.58;;;9.96;47.21
40372;BME280;28564;53.346;-6.554;2023-02-28T03:58:16;102959.94;;;9.98;47.23
40372;BME280;28564;53.346;-6.554;2023-02-28T04:00:52;102962.56;;;9.73;47.32
40372;BME280;28564;53.346;-6.554;2023-02-28T04:03:22;102968.08;;;9.93;47.46
40372;BME280;28564;53.346;-6.554;2023-02-28T04:05:52;102969.67;;;9.70;47.60
40372;BME280;28564;53.346;-6.554;2023-02-28T04:08:20;102967.97;;;9.68;47.73
40372;BME280;28564;53.346;-6.554;2023-02-28T04:10:53;102971.06;;;9.65;47.87
40372;BME280;28564;53.346;-6.554;2023-02-28T04:13:22;102976.16;;;9.61;48.00
40372;BME280;28564;53.346;-6.554;2023-02-28T04:15:50;102975.45;;;9.58;48.15
40372;BME280;28564;53.346;-6.554;2023-02-28T04:18:17;102976.82;;;9.53;48.31
40372;BME280;28564;53.346;-6.554;2023-02-28T04:20:44;102977.27;;;9.51;48.45
40372;BME280;28564;53.346;-6.554;2023-02-28T04:23:12;102978.03;;;9.55;48.47
40372;BME280;28564;53.346;-6.554;2023-02-28T04:25:38;102977.12;;;9.77;48.53
40372;BME280;28564;53.346;-6.554;2023-02-28T04:28:06;102979.38;;;9.54;48.55
40372;BME280;28564;53.346;-6.554;2023-02-28T04:30:34;102981.72;;;9.49;48.73
40372;BME280;28564;53.346;-6.554;2023-02-28T04:33:01;102980.87;;;9.20;48.86
40372;BME280;28564;53.346;-6.554;2023-02-28T04:35:28;102979.89;;;9.45;48.95
40372;BME280;28564;53.346;-6.554;2023-02-28T04:37:56;102981.92;;;9.44;49.04
40372;BME280;28564;53.346;-6.554;2023-02-28T04:40:23;102985.32;;;9.45;49.14
40372;BME280;28564;53.346;-6.554;2023-02-28T04:42:50;102980.46;;;9.93;49.15
40372;BME280;28564;53.346;-6.554;2023-02-28T04:45:18;102982.92;;;9.44;49.13
40372;BME280;28564;53.346;-6.554;2023-02-28T04:47:45;102984.79;;;9.68;49.04
40372;BME280;28564;53.346;-6.554;2023-02-28T04:50:12;102988.15;;;9.43;49.19
40372;BME280;28564;53.346;-6.554;2023-02-28T04:52:39;102992.31;;;9.91;49.28
40372;BME280;28564;53.346;-6.554;2023-02-28T04:55:07;102995.13;;;9.63;49.41
40372;BME280;28564;53.346;-6.554;2023-02-28T04:57:35;102992.36;;;9.62;49.36
40372;BME280;28564;53.346;-6.554;2023-02-28T05:00:02;102991.08;;;9.61;49.42
40372;BME280;28564;53.346;-6.554;2023-02-28T05:02:30;102992.36;;;9.61;49.41
40372;BME280;28564;53.346;-6.554;2023-02-28T05:04:57;102992.29;;;9.59;49.43
40372;BME280;28564;53.346;-6.554;2023-02-28T05:07:24;102991.92;;;9.79;49.53
40372;BME280;28564;53.346;-6.554;2023-02-28T05:09:52;102990.45;;;9.44;49.86
40372;BME280;28564;53.346;-6.554;2023-02-28T05:12:19;102986.75;;;9.68;50.19
40372;BME280;28564;53.346;-6.554;2023-02-28T05:14:46;102988.67;;;9.70;50.21
40372;BME280;28564;53.346;-6.554;2023-02-28T05:17:14;102990.53;;;9.73;50.26
40372;BME280;28564;53.346;-6.554;2023-02-28T05:19:41;102985.74;;;9.74;50.29
40372;BME280;28564;53.346;-6.554;2023-02-28T05:22:13;102985.62;;;9.48;50.34
40372;BME280;28564;53.346;-6.554;2023-02-28T05:24:41;102993.61;;;9.49;50.36
40372;BME280;28564;53.346;-6.554;2023-02-28T05:27:09;102994.89;;;9.52;50.40
40372;BME280;28564;53.346;-6.554;2023-02-28T05:29:36;102994.33;;;9.33;50.37
40372;BME280;28564;53.346;-6.554;2023-02-28T05:32:03;102999.08;;;9.36;50.32
40372;BME280;28564;53.346;-6.554;2023-02-28T05:34:30;103004.63;;;9.84;50.22
40372;BME280;28564;53.346;-6.554;2023-02-28T05:36:58;103004.63;;;9.84;50.32
40372;BME280;28564;53.346;-6.554;2023-02-28T05:39:25;103009.33;;;9.60;50.32
40372;BME280;28564;53.346;-6.554;2023-02-28T05:41:52;103011.73;;;9.90;50.33
40372;BME280;28564;53.346;-6.554;2023-02-28T05:44:19;103015.71;;;9.92;50.23
40372;BME280;28564;53.346;-6.554;2023-02-28T05:46:47;103016.32;;;9.44;50.16
40372;BME280;28564;53.346;-6.554;2023-02-28T05:49:14;103017.83;;;9.66;50.15
40372;BME280;28564;53.346;-6.554;2023-02-28T05:51:41;103019.36;;;9.45;50.16
40372;BME280;28564;53.346;-6.554;2023-02-28T05:54:08;103022.84;;;9.45;50.13
40372;BME280;28564;53.346;-6.554;2023-02-28T05:56:36;103024.55;;;9.46;50.12
40372;BME280;28564;53.346;-6.554;2023-02-28T05:59:03;103024.86;;;9.48;50.03
40372;BME280;28564;53.346;-6.554;2023-02-28T06:01:33;103028.04;;;9.48;50.00
40372;BME280;28564;53.346;-6.554;2023-02-28T06:04:02;103027.58;;;9.98;50.00
40372;BME280;28564;53.346;-6.554;2023-02-28T06:06:29;103026.26;;;9.47;49.95
40372;BME280;28564;53.346;-6.554;2023-02-28T06:08:56;103030.33;;;9.45;49.97
40372;BME280;28564;53.346;-6.554;2023-02-28T06:11:23;103032.99;;;9.46;49.98
40372;BME280;28564;53.346;-6.554;2023-02-28T06:13:53;103036.59;;;9.67;49.89
40372;BME280;28564;53.346;-6.554;2023-02-28T06:16:21;103034.85;;;9.40;50.00
40372;BME280;28564;53.346;-6.554;2023-02-28T06:18:48;103037.16;;;9.61;50.15
40372;BME280;28564;53.346;-6.554;2023-02-28T06:21:16;103040.62;;;9.58;50.15
40372;BME280;28564;53.346;-6.554;2023-02-28T06:23:43;103040.18;;;9.30;50.18
40372;BME280;28564;53.346;-6.554;2023-02-28T06:26:11;103039.52;;;9.26;50.38
40372;BME280;28564;53.346;-6.554;2023-02-28T06:28:38;103034.98;;;9.27;50.51
40372;BME280;28564;53.346;-6.554;2023-02-28T06:31:07;103035.31;;;9.76;50.54
40372;BME280;28564;53.346;-6.554;2023-02-28T06:33:35;103042.14;;;9.51;50.51
40372;BME280;28564;53.346;-6.554;2023-02-28T06:36:03;103039.15;;;9.28;50.56
40372;BME280;28564;53.346;-6.554;2023-02-28T06:38:30;103039.41;;;9.75;50.51
40372;BME280;28564;53.346;-6.554;2023-02-28T06:40:59;103041.23;;;9.46;50.59
40372;BME280;28564;53.346;-6.554;2023-02-28T06:43:29;103041.25;;;9.45;50.60
40372;BME280;28564;53.346;-6.554;2023-02-28T06:45:59;103044.35;;;9.71;50.63
40372;BME280;28564;53.346;-6.554;2023-02-28T06:48:27;103043.20;;;9.23;50.59
40372;BME280;28564;53.346;-6.554;2023-02-28T06:51:02;103048.25;;;9.23;50.47
40372;BME280;28564;53.346;-6.554;2023-02-28T06:53:30;103055.47;;;9.16;50.33
40372;BME280;28564;53.346;-6.554;2023-02-28T06:55:57;103059.06;;;9.61;50.33
40372;BME280;28564;53.346;-6.554;2023-02-28T06:58:24;103060.86;;;9.27;50.31
40372;BME280;28564;53.346;-6.554;2023-02-28T07:00:52;103063.62;;;9.53;50.32
40372;BME280;28564;53.346;-6.554;2023-02-28T07:03:20;103070.24;;;9.52;50.08
40372;BME280;28564;53.346;-6.554;2023-02-28T07:05:47;103073.16;;;8.95;49.92
40372;BME280;28564;53.346;-6.554;2023-02-28T07:08:14;103069.71;;;9.40;49.86
40372;BME280;28564;53.346;-6.554;2023-02-28T07:10:42;103070.23;;;9.39;49.82
40372;BME280;28564;53.346;-6.554;2023-02-28T07:13:09;103074.86;;;9.10;49.53
40372;BME280;28564;53.346;-6.554;2023-02-28T07:15:38;103078.58;;;9.31;49.56
40372;BME280;28564;53.346;-6.554;2023-02-28T07:18:05;103079.31;;;9.01;49.59
40372;BME280;28564;53.346;-6.554;2023-02-28T07:20:32;103082.69;;;8.96;49.62
40372;BME280;28564;53.346;-6.554;2023-02-28T07:22:59;103079.62;;;9.16;49.57
40372;BME280;28564;53.346;-6.554;2023-02-28T07:25:28;103081.03;;;9.05;49.65
40372;BME280;28564;53.346;-6.554;2023-02-28T07:27:56;103081.62;;;8.96;49.82
40372;BME280;28564;53.346;-6.554;2023-02-28T07:30:24;103085.49;;;8.65;49.98
40372;BME280;28564;53.346;-6.554;2023-02-28T07:32:51;103085.58;;;9.09;49.95
40372;BME280;28564;53.346;-6.554;2023-02-28T07:35:18;103090.11;;;8.79;49.90
40372;BME280;28564;53.346;-6.554;2023-02-28T07:37:46;103089.37;;;8.73;49.98
40372;BME280;28564;53.346;-6.554;2023-02-28T07:40:14;103093.56;;;8.69;50.19
40372;BME280;28564;53.346;-6.554;2023-02-28T07:42:41;103094.84;;;8.69;50.24
40372;BME280;28564;53.346;-6.554;2023-02-28T07:45:10;103097.40;;;8.70;50.29
40372;BME280;28564;53.346;-6.554;2023-02-28T07:47:37;103095.61;;;8.96;50.35
40372;BME280;28564;53.346;-6.554;2023-02-28T07:50:05;103096.92;;;8.98;50.44
40372;BME280;28564;53.346;-6.554;2023-02-28T07:52:32;103101.74;;;8.82;50.41
40372;BME280;28564;53.346;-6.554;2023-02-28T07:54:59;103104.54;;;8.89;50.23
40372;BME280;28564;53.346;-6.554;2023-02-28T07:57:27;103111.16;;;8.90;50.25
40372;BME280;28564;53.346;-6.554;2023-02-28T07:59:54;103114.36;;;8.92;50.34
40372;BME280;28564;53.346;-6.554;2023-02-28T08:02:21;103121.07;;;8.69;50.37
40372;BME280;28564;53.346;-6.554;2023-02-28T08:04:49;103123.24;;;9.00;50.37
40372;BME280;28564;53.346;-6.554;2023-02-28T08:07:17;103125.44;;;9.09;50.28
40372;BME280;28564;53.346;-6.554;2023-02-28T08:09:44;103131.57;;;9.17;50.10
40372;BME280;28564;53.346;-6.554;2023-02-28T08:12:12;103127.77;;;9.20;49.96
40372;BME280;28564;53.346;-6.554;2023-02-28T08:14:39;103127.26;;;9.01;49.98
40372;BME280;28564;53.346;-6.554;2023-02-28T08:17:07;103125.10;;;9.36;49.90
40372;BME280;28564;53.346;-6.554;2023-02-28T08:19:34;103128.96;;;9.19;49.70
40372;BME280;28564;53.346;-6.554;2023-02-28T08:22:01;103135.14;;;9.51;49.43
40372;BME280;28564;53.346;-6.554;2023-02-28T08:24:29;103136.65;;;9.54;49.38
40372;BME280;28564;53.346;-6.554;2023-02-28T08:26:56;103139.64;;;9.32;49.41
40372;BME280;28564;53.346;-6.554;2023-02-28T08:29:23;103135.87;;;9.15;49.24
40372;BME280;28564;53.346;-6.554;2023-02-28T08:31:50;103133.24;;;9.71;49.25
40372;BME280;28564;53.346;-6.554;2023-02-28T08:34:18;103131.36;;;9.50;48.99
40372;BME280;28564;53.346;-6.554;2023-02-28T08:36:45;103129.45;;;9.50;48.69
40372;BME280;28564;53.346;-6.554;2023-02-28T08:39:13;103129.28;;;9.28;48.65
40372;BME280;28564;53.346;-6.554;2023-02-28T08:41:42;103132.75;;;9.31;48.61
40372;BME280;28564;53.346;-6.554;2023-02-28T08:44:09;103135.44;;;9.37;48.61
40372;BME280;28564;53.346;-6.554;2023-02-28T08:46:36;103134.94;;;9.62;48.36
40372;BME280;28564;53.346;-6.554;2023-02-28T08:49:04;103134.95;;;9.43;48.34
40372;BME280;28564;53.346;-6.554;2023-02-28T08:51:32;103131.48;;;9.95;48.32
40372;BME280;28564;53.346;-6.554;2023-02-28T08:54:00;103132.19;;;9.50;48.26
40372;BME280;28564;53.346;-6.554;2023-02-28T08:56:28;103128.79;;;9.52;48.30
40372;BME280;28564;53.346;-6.554;2023-02-28T08:58:56;103133.67;;;9.80;47.93
40372;BME280;28564;53.346;-6.554;2023-02-28T09:01:26;103135.61;;;9.59;47.90
40372;BME280;28564;53.346;-6.554;2023-02-28T09:03:56;103132.17;;;9.67;47.63
40372;BME280;28564;53.346;-6.554;2023-02-28T09:06:25;103131.04;;;9.70;47.66
40372;BME280;28564;53.346;-6.554;2023-02-28T09:08:55;103130.09;;;9.52;47.65
40372;BME280;28564;53.346;-6.554;2023-02-28T09:11:23;103130.20;;;9.86;47.42
40372;BME280;28564;53.346;-6.554;2023-02-28T09:13:50;103125.93;;;9.95;47.29
40372;BME280;28564;53.346;-6.554;2023-02-28T09:16:18;103131.39;;;10.03;46.97
40372;BME280;28564;53.346;-6.554;2023-02-28T09:18:45;103129.58;;;9.83;46.67
40372;BME280;28564;53.346;-6.554;2023-02-28T09:21:14;103131.08;;;9.86;46.38
40372;BME280;28564;53.346;-6.554;2023-02-28T09:23:42;103140.92;;;10.19;46.20
40372;BME280;28564;53.346;-6.554;2023-02-28T09:26:14;103145.15;;;10.27;46.29
40372;BME280;28564;53.346;-6.554;2023-02-28T09:28:42;103138.27;;;10.08;46.26
40372;BME280;28564;53.346;-6.554;2023-02-28T09:31:13;103139.05;;;10.14;46.16
40372;BME280;28564;53.346;-6.554;2023-02-28T09:33:40;103149.25;;;10.22;45.90
40372;BME280;28564;53.346;-6.554;2023-02-28T09:36:08;103151.00;;;10.24;45.79
40372;BME280;28564;53.346;-6.554;2023-02-28T09:38:35;103147.63;;;10.27;45.58
40372;BME280;28564;53.346;-6.554;2023-02-28T09:41:10;103152.23;;;10.33;45.45
40372;BME280;28564;53.346;-6.554;2023-02-28T09:43:43;103153.40;;;10.65;45.14
40372;BME280;28564;53.346;-6.554;2023-02-28T09:46:24;103153.08;;;10.44;44.74
40372;BME280;28564;53.346;-6.554;2023-02-28T09:48:53;103146.49;;;10.26;44.50
40372;BME280;28564;53.346;-6.554;2023-02-28T09:51:33;103146.98;;;10.35;44.37
40372;BME280;28564;53.346;-6.554;2023-02-28T09:54:03;103146.78;;;10.64;44.31
40372;BME280;28564;53.346;-6.554;2023-02-28T09:56:38;103145.78;;;10.72;44.24
40372;BME280;28564;53.346;-6.554;2023-02-28T09:59:13;103148.78;;;10.62;44.08
40372;BME280;28564;53.346;-6.554;2023-02-28T10:01:51;103144.03;;;10.72;43.68
40372;BME280;28564;53.346;-6.554;2023-02-28T10:04:35;103143.73;;;10.78;43.30
40372;BME280;28564;53.346;-6.554;2023-02-28T10:07:14;103141.98;;;10.86;43.34
40372;BME280;28564;53.346;-6.554;2023-02-28T10:09:50;103143.13;;;10.88;43.00
40372;BME280;28564;53.346;-6.554;2023-02-28T10:12:20;103144.86;;;10.88;42.95
40372;BME280;28564;53.346;-6.554;2023-02-28T10:14:50;103148.60;;;10.97;42.93
40372;BME280;28564;53.346;-6.554;2023-02-28T10:17:21;103151.63;;;11.04;42.84
40372;BME280;28564;53.346;-6.554;2023-02-28T10:19:58;103152.64;;;11.12;42.08
40372;BME280;28564;53.346;-6.554;2023-02-28T10:22:32;103151.12;;;11.17;42.10
40372;BME280;28564;53.346;-6.554;2023-02-28T10:25:04;103157.06;;;11.00;41.92
40372;BME280;28564;53.346;-6.554;2023-02-28T10:27:33;103160.07;;;11.31;41.92
40372;BME280;28564;53.346;-6.554;2023-02-28T10:30:02;103161.97;;;11.36;41.50
40372;BME280;28564;53.346;-6.554;2023-02-28T10:32:31;103161.69;;;11.39;41.27
40372;BME280;28564;53.346;-6.554;2023-02-28T10:35:00;103159.54;;;11.17;41.18
40372;BME280;28564;53.346;-6.554;2023-02-28T10:37:28;103159.37;;;11.12;41.27
40372;BME280;28564;53.346;-6.554;2023-02-28T10:39:55;103158.20;;;11.44;41.38
40372;BME280;28564;53.346;-6.554;2023-02-28T10:42:25;103162.98;;;11.32;41.24
40372;BME280;28564;53.346;-6.554;2023-02-28T10:45:12;103159.88;;;11.44;41.31
40372;BME280;28564;53.346;-6.554;2023-02-28T10:47:51;103156.68;;;11.35;41.08
40372;BME280;28564;53.346;-6.554;2023-02-28T10:50:37;103161.76;;;11.77;40.89
40372;BME280;28564;53.346;-6.554;2023-02-28T10:53:30;103157.55;;;11.58;40.19
40372;BME280;28564;53.346;-6.554;2023-02-28T10:56:00;103157.14;;;11.54;40.00
40372;BME280;28564;53.346;-6.554;2023-02-28T10:58:29;103156.65;;;11.48;39.90
40372;BME280;28564;53.346;-6.554;2023-02-28T11:00:57;103153.87;;;11.37;39.65
40372;BME280;28564;53.346;-6.554;2023-02-28T11:03:31;103153.51;;;11.90;39.06
40372;BME280;28564;53.346;-6.554;2023-02-28T11:06:03;103161.04;;;11.72;39.40
40372;BME280;28564;53.346;-6.554;2023-02-28T11:08:31;103156.30;;;11.42;39.49
40372;BME280;28564;53.346;-6.554;2023-02-28T11:11:02;103152.53;;;11.86;39.93
40372;BME280;28564;53.346;-6.554;2023-02-28T11:13:33;103151.88;;;11.80;39.88
40372;BME280;28564;53.346;-6.554;2023-02-28T11:16:04;103155.64;;;11.56;39.77
40372;BME280;28564;53.346;-6.554;2023-02-28T11:18:37;103158.63;;;11.82;39.80
40372;BME280;28564;53.346;-6.554;2023-02-28T11:21:06;103152.32;;;11.37;39.37
40372;BME280;28564;53.346;-6.554;2023-02-28T11:23:36;103150.49;;;11.36;39.11
40372;BME280;28564;53.346;-6.554;2023-02-28T11:26:07;103154.47;;;12.02;39.00
40372;BME280;28564;53.346;-6.554;2023-02-28T11:28:37;103147.96;;;11.76;38.76
40372;BME280;28564;53.346;-6.554;2023-02-28T11:31:15;103146.69;;;11.91;38.57
40372;BME280;28564;53.346;-6.554;2023-02-28T11:33:45;103143.36;;;12.05;38.06
40372;BME280;28564;53.346;-6.554;2023-02-28T11:36:15;103147.39;;;12.06;37.83
40372;BME280;28564;53.346;-6.554;2023-02-28T11:38:43;103145.35;;;11.96;37.89
40372;BME280;28564;53.346;-6.554;2023-02-28T11:41:21;103143.94;;;11.96;38.27
40372;BME280;28564;53.346;-6.554;2023-02-28T11:44:05;103145.47;;;12.00;38.36
40372;BME280;28564;53.346;-6.554;2023-02-28T11:46:42;103143.58;;;11.99;38.37
40372;BME280;28564;53.346;-6.554;2023-02-28T11:49:25;103145.89;;;11.99;38.50
40372;BME280;28564;53.346;-6.554;2023-02-28T11:51:59;103145.71;;;12.10;38.53
40372;BME280;28564;53.346;-6.554;2023-02-28T11:54:38;103143.65;;;12.10;38.67
40372;BME280;28564;53.346;-6.554;2023-02-28T11:57:30;103140.21;;;12.01;38.47
40372;BME280;28564;53.346;-6.554;2023-02-28T12:00:06;103143.06;;;11.84;38.16
40372;BME280;28564;53.346;-6.554;2023-02-28T12:02:52;103146.09;;;11.72;38.54
40372;BME280;28564;53.346;-6.554;2023-02-28T12:05:29;103145.24;;;11.65;38.46
40372;BME280;28564;53.346;-6.554;2023-02-28T12:08:06;103146.06;;;11.62;38.54
40372;BME280;28564;53.346;-6.554;2023-02-28T12:10:57;103149.11;;;11.54;38.85
40372;BME280;28564;53.346;-6.554;2023-02-28T12:13:37;103149.03;;;11.43;38.69
40372;BME280;28564;53.346;-6.554;2023-02-28T12:16:37;103144.51;;;11.52;38.93
40372;BME280;28564;53.346;-6.554;2023-02-28T12:19:18;103143.68;;;11.51;39.00
40372;BME280;28564;53.346;-6.554;2023-02-28T12:23:14;103133.70;;;11.76;38.85
40372;BME280;28564;53.346;-6.554;2023-02-28T12:25:53;103132.30;;;11.53;38.71
40372;BME280;28564;53.346;-6.554;2023-02-28T12:28:29;103133.46;;;11.42;38.72
40372;BME280;28564;53.346;-6.554;2023-02-28T12:31:02;103135.05;;;11.39;38.55
40372;BME280;28564;53.346;-6.554;2023-02-28T12:33:36;103135.47;;;11.58;38.53
40372;BME280;28564;53.346;-6.554;2023-02-28T12:36:09;103130.54;;;11.35;38.43
40372;BME280;28564;53.346;-6.554;2023-02-28T12:38:41;103125.00;;;11.42;38.35
40372;BME280;28564;53.346;-6.554;2023-02-28T12:41:13;103123.24;;;11.23;38.37
40372;BME280;28564;53.346;-6.554;2023-02-28T12:43:44;103120.33;;;11.64;38.04
40372;BME280;28564;53.346;-6.554;2023-02-28T12:46:17;103114.96;;;11.44;37.65
40372;BME280;28564;53.346;-6.554;2023-02-28T12:48:49;103121.79;;;11.49;37.66
40372;BME280;28564;53.346;-6.554;2023-02-28T12:51:20;103120.35;;;12.06;37.64
40372;BME280;28564;53.346;-6.554;2023-02-28T12:53:56;103121.01;;;11.63;37.60
40372;BME280;28564;53.346;-6.554;2023-02-28T12:56:34;103122.33;;;11.71;37.46
40372;BME280;28564;53.346;-6.554;2023-02-28T12:59:13;103119.20;;;11.77;36.99
40372;BME280;28564;53.346;-6.554;2023-02-28T13:01:59;103118.07;;;11.91;36.81
40372;BME280;28564;53.346;-6.554;2023-02-28T13:04:46;103111.35;;;12.08;36.94
40372;BME280;28564;53.346;-6.554;2023-02-28T13:07:35;103110.08;;;12.29;36.71